Time;durP1;ratioP1;P1;durP2;ratioP2;P2;SDS_P1;SDS_P2;PMS_P1;PMS_P2;Temp;Humidity;BMP_temperature;BMP_pressure;BME280_temperature;BME280_humidity;BME280_pressure;Samples;Min_cycle;Max_cycle;Signal;HPM_P1;HPM_P2
2022/12/14 00:03:03;;;;;;;4.22;2.60;;;;;;;15.96;72.03;100371.72;20960797;28;20056;-94
2022/12/14 00:13:06;;;;;;;3.35;2.72;;;;;;;15.97;71.78;100351.09;20959169;28;20064;-93
2022/12/14 00:23:07;;;;;;;3.00;2.70;;;;;;;15.95;72.02;100332.44;20958574;28;20355;-92
2022/12/14 00:33:09;;;;;;;3.35;2.80;;;;;;;15.65;71.76;100283.16;20958838;28;20407;-91
2022/12/14 00:43:10;;;;;;;2.97;2.65;;;;;;;15.96;71.70;100336.84;20954664;28;20174;-93
2022/12/14 00:53:12;;;;;;;3.38;2.55;;;;;;;15.86;71.79;100306.38;20950904;28;20568;-87
2022/12/14 01:03:14;;;;;;;3.22;2.70;;;;;;;15.78;71.56;100275.69;20973634;28;20044;-93
2022/12/14 01:13:16;;;;;;;3.55;2.80;;;;;;;15.95;71.64;100295.69;20973973;28;20102;-93
2022/12/14 01:23:18;;;;;;;2.80;2.42;;;;;;;15.95;71.66;100284.97;20973970;28;20043;-92
2022/12/14 01:33:19;;;;;;;3.13;2.78;;;;;;;15.95;71.68;100279.59;20972026;28;20052;-93
2022/12/14 01:43:21;;;;;;;3.65;2.70;;;;;;;15.66;71.68;100236.56;20959358;28;20072;-92
2022/12/14 01:53:22;;;;;;;2.90;2.28;;;;;;;15.95;71.55;100271.53;20884814;28;20049;-92
2022/12/14 02:03:28;;;;;;;3.05;2.72;;;;;;;15.47;71.46;100189.94;20887741;28;20492;-94
2022/12/14 02:13:37;;;;;;;2.90;2.60;;;;;;;15.95;71.61;100250.06;20887437;28;20060;-92
2022/12/14 02:23:48;;;;;;;3.38;2.58;;;;;;;15.94;71.46;100244.84;20869392;28;20494;-92
2022/12/14 02:33:57;;;;;;;3.67;3.00;;;;;;;15.95;71.32;100242.00;20886641;28;20053;-92
2022/12/14 02:44:43;;;;;;;2.95;2.65;;;;;;;15.95;71.33;100225.91;20893712;28;20044;-92
2022/12/14 02:54:57;;;;;;;2.93;2.63;;;;;;;15.93;71.23;100221.69;20880910;28;20132;-92
2022/12/14 03:04:59;;;;;;;3.38;2.72;;;;;;;15.71;71.37;100180.63;20883902;28;20063;-93
2022/12/14 03:15:02;;;;;;;3.25;2.45;;;;;;;15.93;71.17;100197.50;20880385;28;20136;-93
2022/12/14 03:25:12;;;;;;;3.40;2.63;;;;;;;15.92;71.31;100203.88;20866106;28;20471;-93
2022/12/14 03:35:24;;;;;;;3.13;2.42;;;;;;;15.88;71.10;100170.22;20866353;28;20053;-92
2022/12/14 03:45:29;;;;;;;3.58;2.50;;;;;;;15.93;71.06;100173.34;20866545;28;20056;-93
2022/12/14 03:55:38;;;;;;;3.05;2.65;;;;;;;15.80;71.09;100147.59;20883463;28;20041;-92
2022/12/14 04:05:45;;;;;;;3.03;2.47;;;;;;;15.71;71.03;100120.78;20880293;28;20048;-92
2022/12/14 04:26:15;;;;;;;3.22;2.88;;;;;;;15.92;70.99;100152.88;20878996;28;20045;-91
2022/12/14 04:36:37;;;;;;;3.42;2.75;;;;;;;15.91;70.96;100137.75;20879204;28;20076;-92
2022/12/14 04:46:39;;;;;;;3.00;2.60;;;;;;;15.91;70.88;100124.34;20892584;28;20136;-92
2022/12/14 04:56:52;;;;;;;2.30;2.08;;;;;;;15.90;70.93;100134.22;20880169;28;20041;-92
2022/12/14 05:07:19;;;;;;;2.83;2.30;;;;;;;15.79;70.64;100110.16;20877848;28;20045;-94
2022/12/14 05:17:20;;;;;;;2.80;2.20;;;;;;;15.90;70.75;100119.91;20877538;28;20049;-92
2022/12/14 05:27:22;;;;;;;3.00;2.25;;;;;;;12.35;70.61;99574.84;21327803;23;20054;-88
2022/12/14 05:37:23;;;;;;;2.92;2.38;;;;;;;16.02;71.95;100097.31;20669863;28;20058;-90
2022/12/14 05:47:26;;;;;;;2.60;2.17;;;;;;;16.11;72.47;100094.75;20637179;28;20046;-89
2022/12/14 05:57:27;;;;;;;2.42;2.15;;;;;;;16.06;72.62;100074.56;20640947;28;20145;-90
2022/12/14 06:07:29;;;;;;;2.30;2.10;;;;;;;16.22;72.88;100067.72;20622230;28;20134;-91
2022/12/14 06:17:30;;;;;;;2.20;2.00;;;;;;;16.26;73.06;100077.19;20623120;28;20078;-91
2022/12/14 06:27:32;;;;;;;2.20;2.00;;;;;;;16.30;73.35;100053.59;20632190;28;20053;-91
2022/12/14 06:37:33;;;;;;;2.20;1.90;;;;;;;16.33;73.17;100053.28;20602625;28;20448;-90
2022/12/14 06:47:35;;;;;;;2.55;1.65;;;;;;;16.25;73.17;100048.63;20606970;28;20060;-91
2022/12/14 06:57:36;;;;;;;2.47;2.05;;;;;;;16.36;73.11;100056.53;20634037;28;20893;-91
2022/12/14 07:07:38;;;;;;;2.22;2.03;;;;;;;16.36;73.17;100051.16;20638040;28;20066;-92
2022/12/14 07:17:40;;;;;;;2.30;1.90;;;;;;;16.30;73.39;100022.19;20619726;28;20141;-89
2022/12/14 07:27:41;;;;;;;1.77;1.50;;;;;;;16.38;73.39;100041.13;20636520;28;20096;-90
2022/12/14 07:37:43;;;;;;;2.30;1.80;;;;;;;16.40;73.19;100038.28;20649307;28;20572;-88
2022/12/14 07:47:49;;;;;;;2.20;1.92;;;;;;;16.31;73.28;100021.19;20716796;28;20108;-90
2022/12/14 07:57:51;;;;;;;2.13;1.92;;;;;;;16.43;73.27;100037.16;20717173;28;20095;-90
2022/12/14 08:07:52;;;;;;;2.33;1.77;;;;;;;16.15;73.20;99991.44;20702022;28;20046;-90
2022/12/14 08:17:54;;;;;;;2.33;2.13;;;;;;;16.43;73.28;100026.41;20705657;28;20068;-91
2022/12/14 08:27:55;;;;;;;2.10;1.90;;;;;;;16.46;73.12;100028.78;20774723;28;20522;-89
2022/12/14 08:37:57;;;;;;;1.95;1.70;;;;;;;16.12;73.16;99978.31;20722534;28;20196;-82
2022/12/14 08:47:59;;;;;;;2.47;1.88;;;;;;;16.42;73.19;100020.16;20697787;28;22191;-91
2022/12/14 08:58:01;;;;;;;2.45;1.92;;;;;;;16.50;73.09;100041.75;20664599;28;20046;-91
2022/12/14 09:08:02;;;;;;;2.63;2.05;;;;;;;16.52;73.17;100033.56;20689456;28;20054;-90
2022/12/14 09:18:04;;;;;;;2.92;1.75;;;;;;;16.53;73.11;100048.69;20676848;28;20481;-91
2022/12/14 09:28:05;;;;;;;1.95;1.85;;;;;;;16.26;73.04;99999.31;20645475;28;20042;-90
2022/12/14 09:38:07;;;;;;;1.75;1.52;;;;;;;16.55;72.98;100044.00;20651385;28;20046;-91
2022/12/14 09:48:16;;;;;;;2.33;1.88;;;;;;;16.28;73.08;99991.13;20642132;28;20109;-90
2022/12/14 09:58:25;;;;;;;2.65;1.70;;;;;;;16.56;73.03;100024.22;20641075;28;20144;-90
2022/12/14 10:08:33;;;;;;;1.77;1.50;;;;;;;16.57;72.99;100020.53;20623363;28;20507;-90
2022/12/14 10:19:00;;;;;;;1.92;1.58;;;;;;;16.46;72.91;100001.91;20640415;28;20081;-89
2022/12/14 10:29:16;;;;;;;2.42;1.77;;;;;;;16.58;73.03;100014.16;20623481;28;20054;-90
2022/12/14 10:39:45;;;;;;;2.13;1.80;;;;;;;16.60;72.93;100008.66;20651296;28;20066;-91
2022/12/14 10:49:59;;;;;;;1.88;1.60;;;;;;;16.60;72.92;99998.72;20636945;28;20050;-90
2022/12/14 11:00:01;;;;;;;1.80;1.63;;;;;;;16.46;72.91;99962.44;20636767;28;20097;-90
2022/12/14 11:10:26;;;;;;;2.58;2.00;;;;;;;16.56;72.87;99970.47;20634548;28;20519;-91
2022/12/14 11:20:27;;;;;;;1.77;1.67;;;;;;;16.63;72.77;99976.94;20618330;28;20046;-90
2022/12/14 11:30:29;;;;;;;2.05;1.67;;;;;;;16.63;72.93;99971.56;20655145;28;20133;-90
2022/12/14 11:40:35;;;;;;;1.42;1.33;;;;;;;16.65;72.82;99988.38;20697026;28;20116;-90
2022/12/14 11:50:36;;;;;;;1.75;1.65;;;;;;;16.37;72.81;99940.03;20680754;28;20411;-91
2022/12/14 12:00:45;;;;;;;1.90;1.67;;;;;;;16.61;72.68;99964.66;20696908;28;20554;-90
2022/12/14 12:10:50;;;;;;;2.42;1.60;;;;;;;16.66;72.71;99955.13;20696545;28;20510;-90
2022/12/14 12:20:56;;;;;;;1.63;1.50;;;;;;;16.66;72.67;99959.66;20695767;28;20045;-90
2022/12/14 12:31:03;;;;;;;1.85;1.38;;;;;;;16.67;72.72;99955.97;20683615;28;20053;-90
2022/12/14 12:41:22;;;;;;;1.65;1.48;;;;;;;16.66;72.77;99955.13;20696096;28;20046;-90
2022/12/14 12:51:28;;;;;;;1.50;1.40;;;;;;;16.59;72.58;99939.78;20702669;28;20042;-91
2022/12/14 13:01:42;;;;;;;1.70;1.58;;;;;;;16.50;72.64;99922.72;20728246;28;20046;-90
2022/12/14 13:11:44;;;;;;;1.42;1.33;;;;;;;16.69;72.55;99951.31;20727710;28;20046;-90
2022/12/14 13:21:49;;;;;;;1.30;1.20;;;;;;;16.48;72.50;99917.47;20718654;28;20141;-88
2022/12/14 13:32:05;;;;;;;1.90;1.50;;;;;;;16.68;72.53;99942.38;20606202;28;20057;-85
2022/12/14 13:42:08;;;;;;;1.60;1.50;;;;;;;16.69;72.55;99943.25;20623821;28;20065;-86
2022/12/14 13:52:45;;;;;;;1.40;1.27;;;;;;;16.65;72.38;99931.94;20619576;28;20506;-86
2022/12/14 14:02:52;;;;;;;1.38;1.27;;;;;;;16.70;72.26;99941.38;20612354;28;20765;-85
2022/12/14 14:12:54;;;;;;;1.95;1.58;;;;;;;16.65;71.14;99937.31;20621475;28;20052;-85
2022/12/14 14:23:14;;;;;;;2.13;1.70;;;;;;;16.58;71.23;99946.97;20628689;28;20047;-86
2022/12/14 14:33:33;;;;;;;1.52;1.40;;;;;;;16.52;71.27;99963.69;20607351;28;20050;-85
2022/12/14 14:43:55;;;;;;;2.15;1.70;;;;;;;16.46;71.23;99953.56;20597247;28;20553;-84
2022/12/14 14:54:16;;;;;;;1.95;1.50;;;;;;;16.43;71.46;99975.34;20589010;28;20056;-85
2022/12/14 15:04:47;;;;;;;1.90;1.52;;;;;;;16.38;71.44;99984.72;20601577;28;20460;-85
2022/12/14 15:14:52;;;;;;;1.98;1.58;;;;;;;16.36;71.20;99985.84;20573871;28;20051;-85
2022/12/14 15:24:56;;;;;;;1.60;1.50;;;;;;;16.34;70.83;99979.78;20583547;28;20055;-86
2022/12/14 15:35:03;;;;;;;1.65;1.50;;;;;;;16.07;70.60;99947.38;20597499;28;20063;-84
2022/12/14 15:45:12;;;;;;;1.92;1.63;;;;;;;16.31;70.82;99977.38;20600871;28;20132;-90
2022/12/14 15:55:31;;;;;;;1.83;1.50;;;;;;;16.30;70.32;99973.84;20575882;28;20046;-82
2022/12/14 16:05:33;;;;;;;1.83;1.45;;;;;;;16.25;70.36;99968.06;20604243;28;20077;-86
2022/12/14 16:15:34;;;;;;;1.73;1.63;;;;;;;15.97;70.48;99922.41;20605308;28;20133;-87
2022/12/14 16:25:58;;;;;;;1.80;1.50;;;;;;;16.04;70.41;99938.75;20573279;28;20399;-86
2022/12/14 16:36:08;;;;;;;1.70;1.55;;;;;;;16.05;70.55;99957.41;20582615;28;20066;-85
2022/12/14 16:46:13;;;;;;;1.98;1.58;;;;;;;16.25;70.78;99976.13;20585037;28;20069;-85
2022/12/14 16:56:17;;;;;;;1.98;1.70;;;;;;;15.85;70.49;99918.19;20581896;28;20070;-83
2022/12/14 17:06:22;;;;;;;1.70;1.40;;;;;;;16.22;70.74;99979.97;20569842;28;20066;-85
2022/12/14 17:16:23;;;;;;;1.53;1.40;;;;;;;16.23;70.58;99978.13;20570684;28;20054;-87
2022/12/14 17:26:29;;;;;;;1.70;1.55;;;;;;;16.22;70.62;99987.16;20592827;28;20129;-88
2022/12/14 17:36:31;;;;;;;2.03;1.45;;;;;;;16.19;70.02;99992.84;20605081;28;20043;-87
2022/12/14 17:46:32;;;;;;;4.63;2.03;;;;;;;16.23;69.73;99991.53;20616090;28;20077;-86
2022/12/14 17:56:34;;;;;;;3.45;2.50;;;;;;;16.28;70.17;99993.81;20625648;28;20050;-91
2022/12/14 18:06:35;;;;;;;3.13;1.80;;;;;;;16.17;69.96;99976.03;20583417;28;20050;-86
2022/12/14 18:16:37;;;;;;;3.35;2.00;;;;;;;16.26;70.34;99995.78;20599562;28;20100;-87
2022/12/14 18:26:38;;;;;;;2.17;1.85;;;;;;;16.24;70.37;100001.28;20586108;28;20057;-88
2022/12/14 18:36:40;;;;;;;3.03;1.73;;;;;;;16.22;70.60;100003.28;20631748;28;20120;-89
2022/12/14 18:46:41;;;;;;;2.95;1.98;;;;;;;16.20;70.66;99998.06;20620599;28;20409;-88
2022/12/14 18:56:49;;;;;;;3.88;2.05;;;;;;;16.20;70.83;100008.81;20636226;28;20141;-89
2022/12/14 19:06:51;;;;;;;2.90;1.90;;;;;;;15.85;70.86;99988.81;20637291;28;20518;-89
2022/12/14 19:16:52;;;;;;;1.80;1.60;;;;;;;16.17;70.86;100035.97;20659662;28;20403;-90
2022/12/14 19:26:54;;;;;;;3.47;1.92;;;;;;;16.16;70.81;100023.53;20708385;28;20046;-90
2022/12/14 19:36:55;;;;;;;2.85;1.65;;;;;;;16.16;71.20;100017.31;20698211;28;20514;-89
2022/12/14 19:46:57;;;;;;;2.38;1.70;;;;;;;16.15;70.79;100037.09;20697536;28;20054;-89
2022/12/14 19:56:58;;;;;;;3.05;1.50;;;;;;;15.96;70.81;100001.25;20695700;28;20053;-89
2022/12/14 20:07:00;;;;;;;3.20;1.80;;;;;;;16.12;70.98;100040.91;20695782;28;20080;-86
2022/12/14 20:17:01;;;;;;;2.10;1.85;;;;;;;16.12;70.75;100032.00;20698282;28;20054;-90
2022/12/14 20:27:03;;;;;;;1.70;1.50;;;;;;;16.00;70.69;100013.41;20709457;28;20050;-89
2022/12/14 20:37:05;;;;;;;2.65;1.90;;;;;;;16.11;70.95;100033.84;20711160;28;20046;-90
2022/12/14 20:47:07;;;;;;;2.50;1.67;;;;;;;16.11;70.71;100057.16;20711254;28;20073;-90
2022/12/14 20:57:08;;;;;;;2.63;2.00;;;;;;;15.64;70.65;99994.38;20710824;28;20050;-89
2022/12/14 21:07:10;;;;;;;2.45;1.67;;;;;;;16.08;70.57;100086.00;20693149;28;20502;-90
2022/12/14 21:17:12;;;;;;;3.08;1.80;;;;;;;16.08;70.58;100082.47;20715722;28;20121;-90
2022/12/14 21:27:26;;;;;;;2.40;1.73;;;;;;;16.08;70.61;100072.56;20708010;28;20050;-90
2022/12/14 21:37:27;;;;;;;2.42;1.77;;;;;;;16.07;70.51;100078.94;20707248;28;20071;-89
2022/12/14 21:47:30;;;;;;;2.20;1.77;;;;;;;16.06;70.50;100071.88;20723828;28;20058;-90
2022/12/14 22:07:51;;;;;;;2.42;1.85;;;;;;;15.85;70.48;100057.75;20723805;28;20561;-90
2022/12/14 22:17:53;;;;;;;1.55;1.40;;;;;;;16.05;70.31;100094.34;20708776;28;20049;-90
2022/12/14 22:27:54;;;;;;;3.15;2.13;;;;;;;15.54;70.31;100044.50;20724552;28;20057;-90
2022/12/14 22:37:57;;;;;;;1.88;1.50;;;;;;;16.04;70.23;100099.84;20726848;28;20132;-89
2022/12/14 22:47:59;;;;;;;2.03;1.73;;;;;;;16.04;70.03;100106.09;20709411;28;20038;-90
2022/12/14 22:58:00;;;;;;;2.55;1.67;;;;;;;15.82;69.98;100075.00;20724311;28;20058;-89
2022/12/14 23:08:02;;;;;;;2.30;1.83;;;;;;;16.03;69.98;100125.88;20707736;28;20108;-90
